createdAt,value
2019-03-21T00:00:07.833Z,11.55
2019-03-21T00:00:49.575Z,11.59
2019-03-21T00:01:29.004Z,11.54
2019-03-21T00:02:09.597Z,11.65
2019-03-21T00:02:50.154Z,11.62
2019-03-21T00:03:30.710Z,11.62
2019-03-21T00:04:11.273Z,11.54
2019-03-21T00:04:51.896Z,11.59
2019-03-21T00:05:32.400Z,11.59
2019-03-21T00:06:12.972Z,11.62
2019-03-21T00:06:53.543Z,11.68
2019-03-21T00:07:34.108Z,11.65
2019-03-21T00:08:14.681Z,11.54
2019-03-21T00:08:55.266Z,11.62
2019-03-21T00:09:35.850Z,11.66
2019-03-21T00:10:16.418Z,11.63
2019-03-21T00:10:57.056Z,11.59
2019-03-21T00:11:37.624Z,11.55
2019-03-21T00:12:18.186Z,11.54
2019-03-21T00:12:58.778Z,11.59
2019-03-21T00:13:39.366Z,11.57
2019-03-21T00:14:19.944Z,11.57
2019-03-21T00:15:00.503Z,11.57
2019-03-21T00:15:41.070Z,11.65
2019-03-21T00:16:21.632Z,11.59
2019-03-21T00:17:02.224Z,11.62
2019-03-21T00:17:42.765Z,11.65
2019-03-21T00:18:23.343Z,11.55
2019-03-21T00:19:03.915Z,11.65
2019-03-21T00:19:44.543Z,11.55
2019-03-21T00:20:25.188Z,11.66
2019-03-21T00:21:05.753Z,11.59
2019-03-21T00:21:46.308Z,11.6
2019-03-21T00:22:26.861Z,11.65
2019-03-21T00:23:07.434Z,11.62
2019-03-21T00:23:48.000Z,11.63
2019-03-21T00:24:28.570Z,11.59
2019-03-21T00:25:09.129Z,11.59
2019-03-21T00:25:49.715Z,11.62
2019-03-21T00:26:31.313Z,11.62
2019-03-21T00:27:10.867Z,11.6
2019-03-21T00:27:51.430Z,11.62
2019-03-21T00:28:32.002Z,11.62
2019-03-21T00:29:12.548Z,11.62
2019-03-21T00:29:53.121Z,11.6
2019-03-21T00:30:33.724Z,11.6
2019-03-21T00:31:14.282Z,11.66
2019-03-21T00:31:54.835Z,11.6
2019-03-21T00:32:35.402Z,11.6
2019-03-21T00:33:15.973Z,11.66
2019-03-21T00:33:56.609Z,11.62
2019-03-21T00:34:37.212Z,11.66
2019-03-21T00:35:17.821Z,11.57
2019-03-21T00:35:58.347Z,11.59
2019-03-21T00:36:38.902Z,11.6
2019-03-21T00:37:19.471Z,11.52
2019-03-21T00:38:00.044Z,11.62
2019-03-21T00:38:40.608Z,11.63
2019-03-21T00:39:32.144Z,11.59
2019-03-21T00:40:01.761Z,11.6
2019-03-21T00:40:43.947Z,11.52
2019-03-21T00:41:22.894Z,11.57
2019-03-21T00:42:03.457Z,11.62
2019-03-21T00:42:44.019Z,11.51
2019-03-21T00:43:24.822Z,11.65
2019-03-21T00:44:05.292Z,11.59
2019-03-21T00:44:45.862Z,11.59
2019-03-21T00:45:26.437Z,11.54
2019-03-21T00:46:06.994Z,11.57
2019-03-21T00:46:47.560Z,11.57
2019-03-21T00:47:28.117Z,11.55
2019-03-21T00:48:08.746Z,11.52
2019-03-21T00:48:49.302Z,11.55
2019-03-21T00:49:29.857Z,11.55
2019-03-21T00:50:10.420Z,11.57
2019-03-21T00:50:50.971Z,11.52
2019-03-21T00:51:31.568Z,11.54
2019-03-21T00:52:12.136Z,11.59
2019-03-21T00:52:52.702Z,11.48
2019-03-21T00:53:33.299Z,11.57
2019-03-21T00:54:13.867Z,11.48
2019-03-21T00:54:54.455Z,11.5
2019-03-21T00:55:35.015Z,11.55
2019-03-21T00:56:15.583Z,11.55
2019-03-21T00:56:56.140Z,11.54
2019-03-21T00:57:36.686Z,11.55
2019-03-21T00:58:17.248Z,11.51
2019-03-21T00:58:57.806Z,11.51
2019-03-21T00:59:38.411Z,11.52
2019-03-21T01:00:18.990Z,11.51
2019-03-21T01:00:59.546Z,11.48
2019-03-21T01:01:40.111Z,11.5
2019-03-21T01:02:20.668Z,11.44
2019-03-21T01:03:03.530Z,11.51
2019-03-21T01:03:41.805Z,11.51
2019-03-21T01:04:22.399Z,11.51
2019-03-21T01:05:02.974Z,11.51
2019-03-21T01:05:43.533Z,11.5
2019-03-21T01:06:24.102Z,11.47
2019-03-21T01:07:04.686Z,11.48
2019-03-21T01:07:45.242Z,11.35
2019-03-21T01:08:25.814Z,11.51
2019-03-21T01:09:06.417Z,11.48
2019-03-21T01:09:46.972Z,11.33
2019-03-21T01:10:27.536Z,11.33
2019-03-21T01:11:08.094Z,11.47
2019-03-21T01:11:48.680Z,11.47
2019-03-21T01:12:29.232Z,11.36
2019-03-21T01:13:09.818Z,11.47
2019-03-21T01:13:50.378Z,11.47
2019-03-21T01:14:30.960Z,11.47
2019-03-21T01:15:11.525Z,11.47
2019-03-21T01:15:52.094Z,11.44
2019-03-21T01:16:32.675Z,11.48
2019-03-21T01:17:13.250Z,11.45
2019-03-21T01:17:53.811Z,11.48
2019-03-21T01:18:34.369Z,11.48
2019-03-21T01:19:14.950Z,11.48
2019-03-21T01:19:55.501Z,11.43
2019-03-21T01:20:36.059Z,11.44
2019-03-21T01:21:16.641Z,11.48
2019-03-21T01:21:57.234Z,11.47
2019-03-21T01:22:37.791Z,11.4
2019-03-21T01:23:18.356Z,11.45
2019-03-21T01:23:58.917Z,11.41
2019-03-21T01:24:39.496Z,11.45
2019-03-21T01:25:20.045Z,11.33
2019-03-21T01:26:00.622Z,11.52
2019-03-21T01:26:41.185Z,11.37
2019-03-21T01:27:21.745Z,11.47
2019-03-21T01:28:02.307Z,11.52
2019-03-21T01:28:42.869Z,11.4
2019-03-21T01:29:23.430Z,11.37
2019-03-21T01:30:03.996Z,11.37
2019-03-21T01:30:44.554Z,11.44
2019-03-21T01:31:25.170Z,11.44
2019-03-21T01:32:05.803Z,11.4
2019-03-21T01:32:46.311Z,11.4
2019-03-21T01:33:26.898Z,11.37
2019-03-21T01:34:07.462Z,11.41
2019-03-21T01:34:48.031Z,11.41
2019-03-21T01:35:28.580Z,11.4
2019-03-21T01:36:09.161Z,11.36
2019-03-21T01:36:49.722Z,11.44
2019-03-21T01:37:30.302Z,11.37
2019-03-21T01:38:10.885Z,11.43
2019-03-21T01:38:51.447Z,11.36
2019-03-21T01:39:32.004Z,11.41
2019-03-21T01:40:12.563Z,11.44
2019-03-21T01:40:53.127Z,11.43
2019-03-21T01:41:33.703Z,11.37
2019-03-21T01:42:14.269Z,11.43
2019-03-21T01:42:54.848Z,11.43
2019-03-21T01:43:35.429Z,11.41
2019-03-21T01:44:15.992Z,11.44
2019-03-21T01:44:56.563Z,11.36
2019-03-21T01:45:37.117Z,11.37
2019-03-21T01:46:17.705Z,11.35
2019-03-21T01:46:58.274Z,11.36
2019-03-21T01:47:38.863Z,11.44
2019-03-21T01:48:19.432Z,11.35
2019-03-21T01:48:59.996Z,11.3
2019-03-21T01:49:40.548Z,11.37
2019-03-21T01:50:21.146Z,11.33
2019-03-21T01:51:01.708Z,11.51
2019-03-21T01:51:42.277Z,11.37
2019-03-21T01:52:22.846Z,11.37
2019-03-21T01:53:03.433Z,11.35
2019-03-21T01:53:44.036Z,11.32
2019-03-21T01:54:24.685Z,11.47
2019-03-21T01:55:05.241Z,11.35
2019-03-21T01:55:45.808Z,11.37
2019-03-21T01:56:26.389Z,11.36
2019-03-21T01:57:06.971Z,11.33
2019-03-21T01:57:48.012Z,11.45
2019-03-21T01:58:28.586Z,11.35
2019-03-21T01:59:09.150Z,11.41
2019-03-21T01:59:49.739Z,11.48
2019-03-21T02:00:30.314Z,11.45
2019-03-21T02:01:10.862Z,11.47
2019-03-21T02:01:51.425Z,11.3
2019-03-21T02:02:31.991Z,11.47
2019-03-21T02:03:12.560Z,11.33
2019-03-21T02:03:53.117Z,11.37
2019-03-21T02:04:33.688Z,11.4
2019-03-21T02:05:14.249Z,11.44
2019-03-21T02:05:54.808Z,11.3
2019-03-21T02:06:35.370Z,11.36
2019-03-21T02:07:15.936Z,11.36
2019-03-21T02:07:56.500Z,11.41
2019-03-21T02:08:37.056Z,11.44
2019-03-21T02:09:17.627Z,11.41
2019-03-21T02:09:58.197Z,11.37
2019-03-21T02:10:38.758Z,11.36
2019-03-21T02:11:19.312Z,11.37
2019-03-21T02:11:59.880Z,11.37
2019-03-21T02:12:40.498Z,11.41
2019-03-21T02:13:21.017Z,11.32
2019-03-21T02:14:01.568Z,11.37
2019-03-21T02:14:51.726Z,11.41
2019-03-21T02:15:22.746Z,11.4
2019-03-21T02:16:03.294Z,11.35
2019-03-21T02:16:43.866Z,11.41
2019-03-21T02:17:24.439Z,11.41
2019-03-21T02:18:05.017Z,11.41
2019-03-21T02:18:45.595Z,11.35
2019-03-21T02:19:26.152Z,11.33
2019-03-21T02:20:06.723Z,11.35
2019-03-21T02:20:47.298Z,11.35
2019-03-21T02:21:27.859Z,11.27
2019-03-21T02:22:08.435Z,11.3
2019-03-21T02:22:49.011Z,11.19
2019-03-21T02:23:29.571Z,11.15
2019-03-21T02:24:10.149Z,11.17
2019-03-21T02:24:50.700Z,11.18
2019-03-21T02:25:31.258Z,11.15
2019-03-21T02:26:11.812Z,11.1
2019-03-21T02:26:52.378Z,11.1
2019-03-21T02:27:32.931Z,11.02
2019-03-21T02:28:13.487Z,11.08
2019-03-21T02:28:54.037Z,11.08
2019-03-21T02:29:34.694Z,11.02
2019-03-21T02:30:15.256Z,11.07
2019-03-21T02:30:55.820Z,11.1
2019-03-21T02:31:36.394Z,11.08
2019-03-21T02:32:16.953Z,11.07
2019-03-21T02:32:57.520Z,11.12
2019-03-21T02:33:38.074Z,11.14
2019-03-21T02:34:18.661Z,11.1
2019-03-21T02:34:59.210Z,11.15
2019-03-21T02:35:39.771Z,11.19
2019-03-21T02:36:20.326Z,11.17
2019-03-21T02:37:00.898Z,11.14
2019-03-21T02:37:41.455Z,11.15
2019-03-21T02:38:22.029Z,11.22
2019-03-21T02:39:02.603Z,11.11
2019-03-21T02:39:43.206Z,11.19
2019-03-21T02:40:23.761Z,11.19
2019-03-21T02:41:04.354Z,11.12
2019-03-21T02:41:44.943Z,11.23
2019-03-21T02:42:25.516Z,11.23
2019-03-21T02:43:06.099Z,11.23
2019-03-21T02:43:46.659Z,11.19
2019-03-21T02:44:27.232Z,11.22
2019-03-21T02:45:09.414Z,11.19
2019-03-21T02:45:48.373Z,11.23
2019-03-21T02:46:28.946Z,11.23
2019-03-21T02:47:09.495Z,11.26
2019-03-21T02:47:50.049Z,11.22
2019-03-21T02:48:30.610Z,11.15
2019-03-21T02:49:11.170Z,11.19
2019-03-21T02:49:51.730Z,11.12
2019-03-21T02:50:32.293Z,11.17
2019-03-21T02:51:12.848Z,11.23
2019-03-21T02:51:53.411Z,11.15
2019-03-21T02:52:33.979Z,11.26
2019-03-21T02:53:14.544Z,11.11
2019-03-21T02:53:55.111Z,11.18
2019-03-21T02:54:35.655Z,11.11
2019-03-21T02:55:16.240Z,11.18
2019-03-21T02:55:56.820Z,11.14
2019-03-21T02:56:37.433Z,11.14
2019-03-21T02:57:17.948Z,11.15
2019-03-21T02:57:58.534Z,11.11
2019-03-21T02:58:39.092Z,11.19
2019-03-21T02:59:19.639Z,11.17
2019-03-21T03:00:00.431Z,11.11
2019-03-21T03:00:40.765Z,11.18
2019-03-21T03:01:21.353Z,11.15
2019-03-21T03:02:01.912Z,11.15
2019-03-21T03:02:42.470Z,11.22
2019-03-21T03:03:23.024Z,11.08
2019-03-21T03:04:03.653Z,11.22
2019-03-21T03:04:44.228Z,11.11
2019-03-21T03:05:24.790Z,11.08
2019-03-21T03:06:05.349Z,11.22
2019-03-21T03:06:45.922Z,11.15
2019-03-21T03:07:26.481Z,11.11
2019-03-21T03:08:07.037Z,11.17
2019-03-21T03:08:47.604Z,11.18
2019-03-21T03:09:28.196Z,11.17
2019-03-21T03:10:08.774Z,11.14
2019-03-21T03:10:49.316Z,11.11
2019-03-21T03:11:29.874Z,11.12
2019-03-21T03:12:10.434Z,11.23
2019-03-21T03:12:51.029Z,11.1
2019-03-21T03:13:31.618Z,11.11
2019-03-21T03:14:12.176Z,11.12
2019-03-21T03:14:52.737Z,11.15
2019-03-21T03:15:33.302Z,11.12
2019-03-21T03:16:13.858Z,11.15
2019-03-21T03:16:54.401Z,11.18
2019-03-21T03:17:34.956Z,11.12
2019-03-21T03:18:15.519Z,11.05
2019-03-21T03:18:56.081Z,11.04
2019-03-21T03:19:36.639Z,11.17
2019-03-21T03:20:17.207Z,11.15
2019-03-21T03:20:57.764Z,11.17
2019-03-21T03:21:38.344Z,11.17
2019-03-21T03:22:18.951Z,11.14
2019-03-21T03:22:59.499Z,11.17
2019-03-21T03:23:40.065Z,11.14
2019-03-21T03:24:20.622Z,11.18
2019-03-21T03:25:01.182Z,11.14
2019-03-21T03:25:41.758Z,11.18
2019-03-21T03:26:22.322Z,11.1
2019-03-21T03:27:02.875Z,11.18
2019-03-21T03:27:43.442Z,11.14
2019-03-21T03:28:24.021Z,11.12
2019-03-21T03:29:04.572Z,11.1
2019-03-21T03:29:45.154Z,11.17
2019-03-21T03:30:25.727Z,11
2019-03-21T03:31:06.299Z,11.17
2019-03-21T03:31:46.861Z,11.07
2019-03-21T03:32:27.435Z,11.23
2019-03-21T03:33:08.004Z,11.07
2019-03-21T03:33:48.561Z,11.18
2019-03-21T03:34:29.130Z,11.17
2019-03-21T03:35:09.690Z,11.22
2019-03-21T03:35:50.247Z,11.19
2019-03-21T03:36:30.864Z,11.17
2019-03-21T03:37:11.420Z,11.18
2019-03-21T03:37:51.993Z,11.18
2019-03-21T03:38:32.553Z,11.12
2019-03-21T03:39:13.120Z,11.14
2019-03-21T03:39:53.696Z,11.04
2019-03-21T03:40:34.289Z,11.17
2019-03-21T03:41:14.858Z,11.08
2019-03-21T03:41:55.408Z,11.02
2019-03-21T03:42:36.022Z,11.07
2019-03-21T03:43:16.589Z,11.1
2019-03-21T03:43:57.146Z,11.07
2019-03-21T03:44:37.700Z,11.07
2019-03-21T03:45:18.262Z,11.04
2019-03-21T03:45:58.849Z,11.1
2019-03-21T03:46:39.424Z,11.08
2019-03-21T03:47:20.013Z,11.17
2019-03-21T03:48:00.578Z,11.05
2019-03-21T03:48:41.191Z,11.11
2019-03-21T03:49:21.792Z,11.05
2019-03-21T03:50:02.384Z,11
2019-03-21T03:50:42.936Z,11.1
2019-03-21T03:51:23.520Z,11
2019-03-21T03:52:04.104Z,11.07
2019-03-21T03:52:44.666Z,10.94
2019-03-21T03:53:25.233Z,10.93
2019-03-21T03:54:05.792Z,11.02
2019-03-21T03:54:46.359Z,10.94
2019-03-21T03:55:26.918Z,11.02
2019-03-21T03:56:07.486Z,10.99
2019-03-21T03:56:48.053Z,10.94
2019-03-21T03:57:29.095Z,10.97
2019-03-21T03:58:09.653Z,10.99
2019-03-21T03:58:50.311Z,11.02
2019-03-21T03:59:30.794Z,11.05
2019-03-21T04:00:11.346Z,10.97
2019-03-21T04:00:51.915Z,10.99
2019-03-21T04:01:32.474Z,11.07
2019-03-21T04:02:13.035Z,11.07
2019-03-21T04:02:53.638Z,11.05
2019-03-21T04:03:34.227Z,11.07
2019-03-21T04:04:14.817Z,11.04
2019-03-21T04:04:55.381Z,11.04
2019-03-21T04:05:35.955Z,11.1
2019-03-21T04:06:16.525Z,11.08
2019-03-21T04:06:57.098Z,11.08
2019-03-21T04:07:37.677Z,11.1
2019-03-21T04:08:18.235Z,11.07
2019-03-21T04:08:58.794Z,11.07
2019-03-21T04:09:39.360Z,11.15
2019-03-21T04:10:19.917Z,11.12
2019-03-21T04:11:00.483Z,11.17
2019-03-21T04:11:41.062Z,11.14
2019-03-21T04:12:21.599Z,11.1
2019-03-21T04:13:02.161Z,11.18
2019-03-21T04:13:42.715Z,11.14
2019-03-21T04:14:23.285Z,11.11
2019-03-21T04:15:03.846Z,11.11
2019-03-21T04:15:52.161Z,11.12
2019-03-21T04:16:25.001Z,11.15
2019-03-21T04:17:05.564Z,11.17
2019-03-21T04:17:46.110Z,11.18
2019-03-21T04:18:26.687Z,11.15
2019-03-21T04:19:07.212Z,11.08
2019-03-21T04:19:47.791Z,11.1
2019-03-21T04:20:28.341Z,11.02
2019-03-21T04:21:08.911Z,11.12
2019-03-21T04:21:49.510Z,11.08
2019-03-21T04:22:30.081Z,11.11
2019-03-21T04:23:10.694Z,11.04
2019-03-21T04:23:51.209Z,11.12
2019-03-21T04:24:31.773Z,11.14
2019-03-21T04:25:12.352Z,11.18
2019-03-21T04:25:52.920Z,11.17
2019-03-21T04:26:33.484Z,11.17
2019-03-21T04:27:14.031Z,11.17
2019-03-21T04:27:54.623Z,11.17
2019-03-21T04:28:35.195Z,11.14
2019-03-21T04:29:15.756Z,11.07
2019-03-21T04:29:56.334Z,11.07
2019-03-21T04:30:36.908Z,11.12
2019-03-21T04:31:17.462Z,11.11
2019-03-21T04:31:58.040Z,11.17
2019-03-21T04:32:38.589Z,11.08
2019-03-21T04:33:22.255Z,11.17
2019-03-21T04:33:59.712Z,11.1
2019-03-21T04:34:40.260Z,11.17
2019-03-21T04:35:20.834Z,11.08
2019-03-21T04:36:01.365Z,11.14
2019-03-21T04:36:41.925Z,11.14
2019-03-21T04:37:22.502Z,11.18
2019-03-21T04:38:03.077Z,11.17
2019-03-21T04:38:43.633Z,11.14
2019-03-21T04:39:24.206Z,11.15
2019-03-21T04:40:04.754Z,11.14
2019-03-21T04:40:45.322Z,11.12
2019-03-21T04:41:25.881Z,11.11
2019-03-21T04:42:06.427Z,11.15
2019-03-21T04:42:47.008Z,11.11
2019-03-21T04:43:27.570Z,11.08
2019-03-21T04:44:08.132Z,11.17
2019-03-21T04:44:48.695Z,11.14
2019-03-21T04:45:29.259Z,11.14
2019-03-21T04:46:09.857Z,11.18
2019-03-21T04:46:50.459Z,11.12
2019-03-21T04:47:31.014Z,11.18
2019-03-21T04:48:11.587Z,11.18
2019-03-21T04:48:52.140Z,11.17
2019-03-21T04:49:32.716Z,11.14
2019-03-21T04:50:13.283Z,11.14
2019-03-21T04:50:53.850Z,11.05
2019-03-21T04:51:34.410Z,11.1
2019-03-21T04:52:14.968Z,11.11
2019-03-21T04:52:55.527Z,11.14
2019-03-21T04:53:36.090Z,11.07
2019-03-21T04:54:16.657Z,11.07
2019-03-21T04:54:57.229Z,11.04
2019-03-21T04:55:37.796Z,11.17
2019-03-21T04:56:18.378Z,11.11
2019-03-21T04:56:58.940Z,11.08
2019-03-21T04:57:39.504Z,11.02
2019-03-21T04:58:20.105Z,11.14
2019-03-21T04:59:00.723Z,11.12
2019-03-21T04:59:41.243Z,11.07
2019-03-21T05:00:21.819Z,11.14
2019-03-21T05:01:02.468Z,11.12
2019-03-21T05:01:43.036Z,11.22
2019-03-21T05:02:23.597Z,11.18
2019-03-21T05:03:04.153Z,11.18
2019-03-21T05:03:44.710Z,11.11
2019-03-21T05:04:25.261Z,11.12
2019-03-21T05:05:05.820Z,11.17
2019-03-21T05:05:46.385Z,11.07
2019-03-21T05:06:26.946Z,11.1
2019-03-21T05:07:07.499Z,11.19
2019-03-21T05:07:48.087Z,11.08
2019-03-21T05:08:28.642Z,11.07
2019-03-21T05:09:09.193Z,11.15
2019-03-21T05:09:49.745Z,11.12
2019-03-21T05:10:30.386Z,11.19
2019-03-21T05:11:10.973Z,11.08
2019-03-21T05:11:51.541Z,11.12
2019-03-21T05:12:32.090Z,11.15
2019-03-21T05:13:12.651Z,11.12
2019-03-21T05:13:53.216Z,11.08
2019-03-21T05:14:33.793Z,11.14
2019-03-21T05:15:14.368Z,11.07
2019-03-21T05:15:55.003Z,11.05
2019-03-21T05:16:35.570Z,11.07
2019-03-21T05:17:16.134Z,11.04
2019-03-21T05:17:56.693Z,11.15
2019-03-21T05:18:37.261Z,11.12
2019-03-21T05:19:17.813Z,11.14
2019-03-21T05:19:58.383Z,11.11
2019-03-21T05:20:38.956Z,11.18
2019-03-21T05:21:19.502Z,11.22
2019-03-21T05:22:00.117Z,11.18
2019-03-21T05:22:40.715Z,11.18
2019-03-21T05:23:21.293Z,11.12
2019-03-21T05:24:01.889Z,11.08
2019-03-21T05:24:42.447Z,11.04
2019-03-21T05:25:23.076Z,11.07
2019-03-21T05:26:04.120Z,11.07
2019-03-21T05:26:44.152Z,11.02
2019-03-21T05:27:24.723Z,11.08
2019-03-21T05:28:05.280Z,11.02
2019-03-21T05:28:45.873Z,11.1
2019-03-21T05:29:26.437Z,11.07
2019-03-21T05:30:07.002Z,11.07
2019-03-21T05:30:47.571Z,11.11
2019-03-21T05:31:28.130Z,11.08
2019-03-21T05:32:08.692Z,11.05
2019-03-21T05:32:49.261Z,11.07
2019-03-21T05:33:29.824Z,11.17
2019-03-21T05:34:10.374Z,11.08
2019-03-21T05:34:50.936Z,11.05
2019-03-21T05:35:31.596Z,11.1
2019-03-21T05:36:12.157Z,11.08
2019-03-21T05:36:52.715Z,11.08
2019-03-21T05:37:33.274Z,11.07
2019-03-21T05:38:13.836Z,11.1
2019-03-21T05:38:54.391Z,11.17
2019-03-21T05:39:34.966Z,11.11
2019-03-21T05:40:15.506Z,11.05
2019-03-21T05:40:56.059Z,11.11
2019-03-21T05:41:36.646Z,11.08
2019-03-21T05:42:17.201Z,11.02
2019-03-21T05:42:57.756Z,11.04
2019-03-21T05:43:38.319Z,11.04
2019-03-21T05:44:18.926Z,11.11
2019-03-21T05:44:59.498Z,11.14
2019-03-21T05:45:40.061Z,11.19
2019-03-21T05:46:26.317Z,11.18
2019-03-21T05:47:01.187Z,11.19
2019-03-21T05:47:41.757Z,11.18
2019-03-21T05:48:22.317Z,11.18
2019-03-21T05:49:02.908Z,11.14
2019-03-21T05:49:43.616Z,11.08
2019-03-21T05:50:24.180Z,11.11
2019-03-21T05:51:04.754Z,11.18
2019-03-21T05:51:45.313Z,11.07
2019-03-21T05:52:25.897Z,11.15
2019-03-21T05:53:06.458Z,11.18
2019-03-21T05:53:47.007Z,11.14
2019-03-21T05:54:27.563Z,11.17
2019-03-21T05:55:08.158Z,11.18
2019-03-21T05:55:48.721Z,11.19
2019-03-21T05:56:29.297Z,11.17
2019-03-21T05:57:09.854Z,11.14
2019-03-21T05:57:50.406Z,11.22
2019-03-21T05:58:30.971Z,11.11
2019-03-21T05:59:11.547Z,11.11
2019-03-21T05:59:52.165Z,11.17
2019-03-21T06:00:32.749Z,11.18
2019-03-21T06:01:13.373Z,11.23
2019-03-21T06:01:53.937Z,11.11
2019-03-21T06:02:34.487Z,11.14
2019-03-21T06:03:15.043Z,11.18
2019-03-21T06:03:55.617Z,11.14
2019-03-21T06:04:36.234Z,11.12
2019-03-21T06:05:16.909Z,11.22
2019-03-21T06:05:57.486Z,11.12
2019-03-21T06:06:38.062Z,11.22
2019-03-21T06:07:18.625Z,11.26
2019-03-21T06:07:59.193Z,11.22
2019-03-21T06:08:39.737Z,11.26
2019-03-21T06:09:20.392Z,11.26
2019-03-21T06:10:01.082Z,11.29
2019-03-21T06:10:41.687Z,11.32
2019-03-21T06:11:22.274Z,11.23
2019-03-21T06:12:02.951Z,11.19
2019-03-21T06:12:43.540Z,11.23
2019-03-21T06:13:24.124Z,11.22
2019-03-21T06:14:04.707Z,11.08
2019-03-21T06:14:45.285Z,11.18
2019-03-21T06:15:25.958Z,11.18
2019-03-21T06:16:06.541Z,11.08
2019-03-21T06:16:47.211Z,11.1
2019-03-21T06:17:28.192Z,11.17
2019-03-21T06:18:08.834Z,11.07
2019-03-21T06:18:49.461Z,11.04
2019-03-21T06:19:30.172Z,11.12
2019-03-21T06:20:10.771Z,11.04
2019-03-21T06:20:51.424Z,11.05
2019-03-21T06:21:32.004Z,11.07
2019-03-21T06:22:12.564Z,11.15
2019-03-21T06:22:53.175Z,11.04
2019-03-21T06:23:33.750Z,11.07
2019-03-21T06:24:14.393Z,11.15
2019-03-21T06:24:55.034Z,11.17
2019-03-21T06:25:35.750Z,11.15
2019-03-21T06:26:16.326Z,11.18
2019-03-21T06:26:56.889Z,11.19
2019-03-21T06:27:37.429Z,11.17
2019-03-21T06:28:18.016Z,11.18
2019-03-21T06:28:58.595Z,11.23
2019-03-21T06:29:39.160Z,11.29
2019-03-21T06:30:19.773Z,11.44
2019-03-21T06:31:00.311Z,11.59
2019-03-21T06:31:40.967Z,11.68
2019-03-21T06:32:21.601Z,11.75
2019-03-21T06:33:02.203Z,11.97
2019-03-21T06:33:42.852Z,12.04
2019-03-21T06:34:23.484Z,12.24
2019-03-21T06:35:04.081Z,12.35
2019-03-21T06:35:44.657Z,12.42
2019-03-21T06:36:25.206Z,12.49
2019-03-21T06:37:05.786Z,12.57
2019-03-21T06:37:46.337Z,12.73
2019-03-21T06:38:26.903Z,12.73
2019-03-21T06:39:07.459Z,12.83
2019-03-21T06:39:50.008Z,12.87
2019-03-21T06:40:30.545Z,12.87
2019-03-21T06:41:11.119Z,12.83
2019-03-21T06:41:51.705Z,12.91
2019-03-21T06:42:43.181Z,12.98
2019-03-21T06:45:31.791Z,13.11
2019-03-21T06:46:12.488Z,13.05
2019-03-21T06:46:53.085Z,13.22
2019-03-21T06:47:33.677Z,13.35
2019-03-21T06:48:20.829Z,13.39
2019-03-21T06:49:01.417Z,13.38
2019-03-21T06:53:22.404Z,13.37
2019-03-21T06:54:03.065Z,13.46
2019-03-21T06:54:43.790Z,13.42
2019-03-21T06:55:24.508Z,13.49
2019-03-21T06:56:05.084Z,13.53
2019-03-21T06:56:45.712Z,13.42
2019-03-21T06:57:26.281Z,13.56
2019-03-21T06:58:06.857Z,13.57
2019-03-21T06:58:47.544Z,13.67
2019-03-21T06:59:28.207Z,13.71
2019-03-21T07:00:08.792Z,13.74
2019-03-21T07:00:49.382Z,13.77
2019-03-21T07:01:34.604Z,13.86
2019-03-21T07:02:15.159Z,13.89
2019-03-21T07:02:55.736Z,13.9
2019-03-21T07:03:36.281Z,13.92
2019-03-21T07:04:16.870Z,13.86
2019-03-21T07:04:57.488Z,13.89
2019-03-21T07:05:38.160Z,13.86
2019-03-21T07:06:18.920Z,13.95
2019-03-21T07:07:07.829Z,13.9
2019-03-21T07:07:40.823Z,13.92
2019-03-21T07:08:21.493Z,14.07
2019-03-21T07:09:03.920Z,13.9
2019-03-21T07:09:45.337Z,14.07
2019-03-21T07:10:26.141Z,14.04
2019-03-21T07:11:07.645Z,13.97
2019-03-21T07:12:55.884Z,14.1
2019-03-21T07:13:36.449Z,14.04
2019-03-21T07:14:17.259Z,14.04
2019-03-21T07:14:58.351Z,14.05
2019-03-21T07:17:47.457Z,14.11
2019-03-21T07:20:36.027Z,14.08
2019-03-21T07:21:16.587Z,14.12
2019-03-21T07:21:57.154Z,14.12
2019-03-21T07:22:38.571Z,14.08
2019-03-21T07:23:18.288Z,14.18
2019-03-21T07:23:59.700Z,14.17
2019-03-21T07:24:39.761Z,14.25
2019-03-21T07:25:20.454Z,14.32
2019-03-21T07:26:02.331Z,14.22
2019-03-21T07:26:42.894Z,14.32
2019-03-21T07:27:23.580Z,14.32
2019-03-21T07:28:05.947Z,14.32
2019-03-21T07:28:46.518Z,14.3
2019-03-21T07:29:27.082Z,14.3
2019-03-21T07:30:07.636Z,14.3
2019-03-21T07:30:48.214Z,14.28
2019-03-21T07:31:28.866Z,14.35
2019-03-21T07:32:09.453Z,14.32
2019-03-21T07:32:50.122Z,14.32
2019-03-21T07:33:30.910Z,14.32
2019-03-21T07:34:11.595Z,14.33
2019-03-21T07:34:53.187Z,14.33
2019-03-21T07:35:33.085Z,14.32
2019-03-21T07:36:13.884Z,14.35
2019-03-21T07:36:54.536Z,14.33
2019-03-21T07:37:35.286Z,14.33
2019-03-21T07:38:15.899Z,14.32
2019-03-21T07:38:56.472Z,14.29
2019-03-21T07:39:37.153Z,14.35
2019-03-21T07:40:17.755Z,14.45
2019-03-21T07:40:58.309Z,14.4
2019-03-21T07:41:38.870Z,14.44
2019-03-21T07:42:19.427Z,14.33
2019-03-21T07:42:59.989Z,14.36
2019-03-21T07:43:40.573Z,14.33
2019-03-21T07:44:21.166Z,14.45
2019-03-21T07:45:01.746Z,14.35
2019-03-21T07:45:42.290Z,14.4
2019-03-21T07:46:22.920Z,14.37
2019-03-21T07:47:12.004Z,14.22
2019-03-21T07:47:44.226Z,14.25
2019-03-21T07:50:33.691Z,14.1
2019-03-21T07:51:14.249Z,14.08
2019-03-21T07:51:54.809Z,14.05
2019-03-21T07:52:35.393Z,14.08
2019-03-21T07:53:15.959Z,13.99
2019-03-21T07:53:56.569Z,13.95
2019-03-21T07:54:37.186Z,13.85
2019-03-21T07:55:17.732Z,13.86
2019-03-21T07:55:58.288Z,13.9
2019-03-21T07:56:38.874Z,13.81
2019-03-21T07:57:19.522Z,13.79
2019-03-21T07:58:00.827Z,13.74
2019-03-21T07:58:42.757Z,13.79
2019-03-21T07:59:23.426Z,13.79
2019-03-21T08:00:04.127Z,13.87
2019-03-21T08:00:44.761Z,13.89
2019-03-21T08:01:25.336Z,13.92
2019-03-21T08:02:05.964Z,13.92
2019-03-21T08:02:47.650Z,13.87
2019-03-21T08:03:28.455Z,13.9
2019-03-21T08:04:09.850Z,13.9
2019-03-21T08:04:50.449Z,13.99
2019-03-21T08:05:39.660Z,13.92
2019-03-21T08:06:11.560Z,13.92
2019-03-21T08:06:52.245Z,13.97
2019-03-21T08:07:32.785Z,13.95
2019-03-21T08:08:13.343Z,13.92
2019-03-21T08:08:54.047Z,14.03
2019-03-21T08:09:34.715Z,13.97
2019-03-21T08:10:15.200Z,13.9
2019-03-21T08:10:55.755Z,13.93
2019-03-21T08:11:36.401Z,13.92
2019-03-21T08:12:16.974Z,14.03
2019-03-21T08:12:57.667Z,13.93
2019-03-21T08:13:38.119Z,13.9
2019-03-21T08:14:18.679Z,14
2019-03-21T08:14:59.234Z,14.03
2019-03-21T08:15:39.810Z,14.04
2019-03-21T08:16:20.370Z,14.05
2019-03-21T08:17:00.923Z,14.04
2019-03-21T08:17:41.475Z,14.07
2019-03-21T08:18:22.025Z,14.07
2019-03-21T08:19:02.578Z,14.12
2019-03-21T08:19:43.153Z,14.12
2019-03-21T08:20:23.687Z,14.2
2019-03-21T08:21:04.254Z,14.22
2019-03-21T08:21:44.811Z,14.33
2019-03-21T08:22:25.388Z,14.35
2019-03-21T08:23:05.941Z,14.43
2019-03-21T08:23:46.496Z,14.4
2019-03-21T08:24:27.059Z,14.37
2019-03-21T08:25:07.627Z,14.5
2019-03-21T08:25:48.183Z,14.51
2019-03-21T08:26:28.736Z,14.5
2019-03-21T08:27:09.337Z,14.53
2019-03-21T08:27:51.764Z,14.44
2019-03-21T08:28:32.357Z,14.43
2019-03-21T08:29:13.101Z,14.37
2019-03-21T08:29:53.823Z,14.36
2019-03-21T08:30:34.415Z,14.32
2019-03-21T08:31:15.229Z,14.41
2019-03-21T08:31:55.831Z,14.43
2019-03-21T08:32:36.585Z,14.4
2019-03-21T08:33:17.316Z,14.37
2019-03-21T08:33:57.906Z,14.33
2019-03-21T08:34:38.556Z,14.4
2019-03-21T08:35:19.419Z,14.25
2019-03-21T08:36:00.155Z,14.22
2019-03-21T08:36:40.708Z,14.14
2019-03-21T08:37:21.290Z,14.11
2019-03-21T08:38:01.904Z,13.96
2019-03-21T08:38:42.452Z,13.92
2019-03-21T08:39:23.032Z,13.95
2019-03-21T08:40:03.595Z,13.89
2019-03-21T08:40:44.162Z,13.92
2019-03-21T08:41:24.730Z,13.9
2019-03-21T08:42:05.301Z,13.92
2019-03-21T08:42:46.038Z,13.96
2019-03-21T08:43:27.000Z,14.04
2019-03-21T08:44:07.563Z,14.08
2019-03-21T08:44:48.280Z,14.04
2019-03-21T08:45:28.915Z,14.17
2019-03-21T08:46:09.955Z,14.2
2019-03-21T08:46:50.948Z,14.15
2019-03-21T08:47:31.589Z,14.08
2019-03-21T08:48:12.214Z,14.08
2019-03-21T08:48:53.063Z,14.04
2019-03-21T08:49:33.760Z,14.11
2019-03-21T08:50:14.358Z,14.12
2019-03-21T08:50:54.917Z,14.08
2019-03-21T08:51:35.480Z,14.12
2019-03-21T08:52:16.102Z,14.12
2019-03-21T08:52:56.650Z,14
2019-03-21T08:53:37.210Z,14.03
2019-03-21T08:54:17.779Z,13.99
2019-03-21T08:54:58.387Z,14.03
2019-03-21T08:55:38.947Z,13.9
2019-03-21T08:56:19.532Z,13.95
2019-03-21T08:57:00.092Z,14
2019-03-21T08:57:40.663Z,13.9
2019-03-21T08:58:21.253Z,13.79